Jessica S. Settoon — WDD9545 — position and weather

sailwx.info

Track history (hours):
 
Tides and Currents Weather Stations Pressure Air Temp Water Temp Dewpoint Dewpoint Depression Visibility Wind Speed Wind Dir Waves Ship Positions

Jessica S. Settoon

Owner: Settoon Towing LLC, Houma, LA. More information available from US FCC via Universal Licensing System and Coast Guard Vessel Documentation Center.

Last reported at 2017-Jan-17 07:07 UTC. Time now 2017-Jan-17 08:53 UTC.
Position N 29°36' W 090°58'.

Length 17 m; draft 3 m.

Type: Tug. MMSI: 367312940.

Date/timePositionNaut miles runAvg speedWind from/ knotsBaromVisibWave heightAir tempDewpointWater temp
2017-Jan-17 07:07N 29°36' W 090°58'3 5.6
2017-Jan-17 06:33N 29°34' W 090°55'6 5.9
2017-Jan-17 05:34N 29°32' W 090°49'5 5.3
2017-Jan-17 04:33N 29°34' W 090°43'3 2.7
2017-Jan-17 03:34N 29°36' W 090°41'6 6.0
2017-Jan-17 02:33N 29°34' W 090°34'7 0.2
2017-Jan-15 15:33N 29°33' W 090°26'7 6.7
2017-Jan-15 14:33N 29°34' W 090°34'7 7.0
2017-Jan-15 13:33N 29°36' W 090°41'6 5.6
2017-Jan-15 12:33N 29°32' W 090°46'7 6.0
2017-Jan-15 11:25N 29°33' W 090°54'3 0.1
2017-Jan-13 16:07N 29°34' W 090°57'4 6.1
2017-Jan-13 15:31N 29°32' W 090°53'5 5.7
2017-Jan-13 14:34N 29°32' W 090°47'5 4.9
2017-Jan-13 13:34N 29°36' W 090°43'4 3.8
2017-Jan-13 12:33N 29°35' W 090°38'1 1.1
2017-Jan-13 11:34N 29°35' W 090°37'0 0.0
2017-Jan-13 10:33N 29°35' W 090°37'0 0.0
2017-Jan-13 09:33N 29°35' W 090°37'0 0.0
2017-Jan-13 08:33N 29°35' W 090°37'0 0.0
2017-Jan-13 07:33N 29°35' W 090°37'1 1.4
2017-Jan-13 06:33N 29°35' W 090°36'4 4.0
2017-Jan-13 05:33N 29°34' W 090°31'2 0.1
2017-Jan-11 18:33N 29°33' W 090°28'7 6.6
2017-Jan-11 17:33N 29°35' W 090°36'6 6.0
2017-Jan-11 16:33N 29°37' W 090°42'2 1.9
2017-Jan-11 15:33N 29°35' W 090°43'0 0.0
2017-Jan-11 14:33N 29°35' W 090°43'0 0.1
2017-Jan-11 13:33N 29°35' W 090°43'0 0.0
2017-Jan-11 12:33N 29°35' W 090°43'0 0.0
2017-Jan-11 11:33N 29°35' W 090°43'0 0.0
2017-Jan-11 10:33N 29°35' W 090°43'0 0.0
2017-Jan-11 09:33N 29°35' W 090°43'0 0.1
2017-Jan-11 08:33N 29°35' W 090°43'0 0.0
2017-Jan-11 07:33N 29°35' W 090°43'0 0.0
2017-Jan-11 06:33N 29°35' W 090°43'0 0.0
2017-Jan-11 05:33N 29°35' W 090°43'0 0.0
2017-Jan-11 04:33N 29°35' W 090°43'0 0.1
2017-Jan-11 03:33N 29°35' W 090°43'2 2.1
2017-Jan-11 02:33N 29°33' W 090°42'6 6.3
2017-Jan-11 01:33N 29°27' W 090°43'9 0.9
2017-Jan-10 15:26N 29°24' W 090°53'4 4.2
2017-Jan-10 14:30N 29°25' W 090°49'2 2.1
2017-Jan-10 13:33N 29°25' W 090°47'3 0.1
2017-Jan-08 10:30N 29°26' W 090°43'7 7.8
2017-Jan-08 09:33N 29°33' W 090°42'3 3.5
2017-Jan-08 08:33N 29°32' W 090°46'  
Track history (hours):
 
Tides and Currents Weather Stations Pressure Air Temp Water Temp Dewpoint Dewpoint Depression Visibility Wind Speed Wind Dir Waves Ship Positions

Jessica S. Settoon

Owner: Settoon Towing LLC, Houma, LA. More information available from US FCC via Universal Licensing System and Coast Guard Vessel Documentation Center.

Last reported at 2017-Jan-17 07:07 UTC. Time now 2017-Jan-17 08:53 UTC.
Position N 29°36' W 090°58'.

Length 17 m; draft 3 m.

Type: Tug. MMSI: 367312940.

Date/timePositionNaut miles runAvg speedWind from/ knotsBaromVisibWave heightAir tempDewpointWater temp
2017-Jan-17 07:07N 29°36' W 090°58'3 5.6
2017-Jan-17 06:33N 29°34' W 090°55'6 5.9
2017-Jan-17 05:34N 29°32' W 090°49'5 5.3
2017-Jan-17 04:33N 29°34' W 090°43'3 2.7
2017-Jan-17 03:34N 29°36' W 090°41'6 6.0
2017-Jan-17 02:33N 29°34' W 090°34'7 0.2
2017-Jan-15 15:33N 29°33' W 090°26'7 6.7
2017-Jan-15 14:33N 29°34' W 090°34'7 7.0
2017-Jan-15 13:33N 29°36' W 090°41'6 5.6
2017-Jan-15 12:33N 29°32' W 090°46'7 6.0
2017-Jan-15 11:25N 29°33' W 090°54'3 0.1
2017-Jan-13 16:07N 29°34' W 090°57'4 6.1
2017-Jan-13 15:31N 29°32' W 090°53'5 5.7
2017-Jan-13 14:34N 29°32' W 090°47'5 4.9
2017-Jan-13 13:34N 29°36' W 090°43'4 3.8
2017-Jan-13 12:33N 29°35' W 090°38'1 1.1
2017-Jan-13 11:34N 29°35' W 090°37'0 0.0
2017-Jan-13 10:33N 29°35' W 090°37'0 0.0
2017-Jan-13 09:33N 29°35' W 090°37'0 0.0
2017-Jan-13 08:33N 29°35' W 090°37'0 0.0
2017-Jan-13 07:33N 29°35' W 090°37'1 1.4
2017-Jan-13 06:33N 29°35' W 090°36'4 4.0
2017-Jan-13 05:33N 29°34' W 090°31'2 0.1
2017-Jan-11 18:33N 29°33' W 090°28'7 6.6
2017-Jan-11 17:33N 29°35' W 090°36'6 6.0
2017-Jan-11 16:33N 29°37' W 090°42'2 1.9
2017-Jan-11 15:33N 29°35' W 090°43'0 0.0
2017-Jan-11 14:33N 29°35' W 090°43'0 0.1
2017-Jan-11 13:33N 29°35' W 090°43'0 0.0
2017-Jan-11 12:33N 29°35' W 090°43'0 0.0
2017-Jan-11 11:33N 29°35' W 090°43'0 0.0
2017-Jan-11 10:33N 29°35' W 090°43'0 0.0
2017-Jan-11 09:33N 29°35' W 090°43'0 0.1
2017-Jan-11 08:33N 29°35' W 090°43'0 0.0
2017-Jan-11 07:33N 29°35' W 090°43'0 0.0
2017-Jan-11 06:33N 29°35' W 090°43'0 0.0
2017-Jan-11 05:33N 29°35' W 090°43'0 0.0
2017-Jan-11 04:33N 29°35' W 090°43'0 0.1
2017-Jan-11 03:33N 29°35' W 090°43'2 2.1
2017-Jan-11 02:33N 29°33' W 090°42'6 6.3
2017-Jan-11 01:33N 29°27' W 090°43'9 0.9
2017-Jan-10 15:26N 29°24' W 090°53'4 4.2
2017-Jan-10 14:30N 29°25' W 090°49'2 2.1
2017-Jan-10 13:33N 29°25' W 090°47'3 0.1
2017-Jan-08 10:30N 29°26' W 090°43'7 7.8
2017-Jan-08 09:33N 29°33' W 090°42'3 3.5
2017-Jan-08 08:33N 29°32' W 090°46'  

Dump ship's entire track history